首页
METAR-TAF:

METAR-TAF

机场 :

哈茨菲尔德-杰克逊亚特兰大国际机场

亚特兰大, 喬治亞, 美国

纬度: 33-38-25N, 经度: 084-25-37W, 海拔: 313米

当前天气观测

该预报发布于12分钟前的03:52 UTC
风速7节,风向西南
温度 22°C
湿度 94%
气压 1012 hPa
能見度: 16.1公里
少量云层高于3000英尺
散云层高于15000英尺
多云层高于25000英尺

METAR: KATL 230352Z 23007KT 10SM FEW030 SCT150 BKN250 22/21 A2987 RMK AO2 SLP105 CB DSNT NW T02220206

时间: 00:04 (04:04 UTC)

预报

该预报发布于26分钟前的03:38 UTC
预报有效从23日的 04点(UTC)到 24日的 06点(UTC)
风速6节,风向西南
能見度: 10公里
散云层高于4000英尺
散云层高于9000英尺
附近有阵雨
短暂存在
从 23日的 04点(UTC)到 23日的 06点(UTC)
能見度: 4.8公里
多云层高于3500英尺
阵雨
从 23日的 0900点(UTC)
风速6节,风向西转西南
能見度: 10公里
散云层高于800英尺
多云层高于1500英尺
从 23日的 1500点(UTC)
风速8节,风向西转西南
能見度: 10公里
多云层高于2500英尺
从 23日的 1800点(UTC)
风速9节,风向西
能見度: 10公里
多云层高于4000英尺
几率 30%
从 23日的 20点(UTC)到 24日的 02点(UTC)
能見度: 6.4公里
阴天层高于2500英尺, 积雨云.
雷暴, 雨
从 24日的 0300点(UTC)
风速6节,风向南转西南
能見度: 10公里
散云层高于4000英尺
散云层高于25000英尺

TAF: KATL 230338Z 2304/2406 23006KT P6SM VCSH SCT040 SCT090 TEMPO 2304/2306 3SM SHRA BKN035 FM230900 24006KT P6SM SCT008 BKN015 FM231500 25008KT P6SM BKN025 FM231800 26009KT P6SM BKN040 PROB30 2320/2402 4SM TSRA OVC025CB FM240300 21006KT P6SM SCT040 SCT250

超过4000个机场的气象观测和天气预报(METAR&TAF报告)。

可查询的气象台以黄色和红色小点在地图上表示。

将鼠标移到小点上方,可查看气象台名称。

然后点击查看天气观测和预报。

如需切换地图:点击带黑十字的绿色按钮放大地图;点击带横线的绿色按钮缩小地图;或者点击绿色箭头查看邻近地区的地图。


METAR-TAF: